sensor_id;sensor_type;location;lat;lon;timestamp;pressure;altitude;pressure_sealevel;temperature;humidity
44148;BME280;29810;55.848;37.368;2023-06-10T00:01:42;99599.56;;;10.24;66.56
44148;BME280;29810;55.848;37.368;2023-06-10T00:04:45;99587.81;;;10.10;67.37
44148;BME280;29810;55.848;37.368;2023-06-10T00:07:47;99591.03;;;10.19;65.98
44148;BME280;29810;55.848;37.368;2023-06-10T00:10:49;99593.78;;;10.14;67.20
44148;BME280;29810;55.848;37.368;2023-06-10T00:13:50;99586.88;;;10.13;66.17
44148;BME280;29810;55.848;37.368;2023-06-10T00:16:52;99592.91;;;10.14;65.84
44148;BME280;29810;55.848;37.368;2023-06-10T00:19:53;99596.78;;;10.00;67.50
44148;BME280;29810;55.848;37.368;2023-06-10T00:22:55;99602.94;;;9.98;66.92
44148;BME280;29810;55.848;37.368;2023-06-10T00:25:58;99603.03;;;9.94;67.31
44148;BME280;29810;55.848;37.368;2023-06-10T00:29:00;99607.50;;;9.89;67.92
44148;BME280;29810;55.848;37.368;2023-06-10T00:32:02;99618.97;;;9.82;68.39
44148;BME280;29810;55.848;37.368;2023-06-10T00:35:04;99619.19;;;9.74;69.07
44148;BME280;29810;55.848;37.368;2023-06-10T00:38:06;99625.06;;;9.81;67.55
44148;BME280;29810;55.848;37.368;2023-06-10T00:41:07;99627.63;;;9.84;67.80
44148;BME280;29810;55.848;37.368;2023-06-10T00:44:08;99633.56;;;9.88;67.65
44148;BME280;29810;55.848;37.368;2023-06-10T00:47:11;99629.28;;;9.85;68.09
44148;BME280;29810;55.848;37.368;2023-06-10T00:50:13;99637.09;;;9.85;67.58
44148;BME280;29810;55.848;37.368;2023-06-10T00:53:14;99635.44;;;9.84;67.64
44148;BME280;29810;55.848;37.368;2023-06-10T00:56:15;99645.75;;;9.87;68.42
44148;BME280;29810;55.848;37.368;2023-06-10T00:59:17;99642.06;;;9.96;68.07
44148;BME280;29810;55.848;37.368;2023-06-10T01:02:19;99652.50;;;10.26;67.43
44148;BME280;29810;55.848;37.368;2023-06-10T01:05:21;99644.75;;;10.54;65.99
44148;BME280;29810;55.848;37.368;2023-06-10T01:08:31;99651.53;;;10.88;64.65
44148;BME280;29810;55.848;37.368;2023-06-10T01:11:36;99662.16;;;11.10;64.00
44148;BME280;29810;55.848;37.368;2023-06-10T01:14:41;99666.28;;;11.44;63.09
44148;BME280;29810;55.848;37.368;2023-06-10T01:20:55;99657.31;;;12.04;60.10
44148;BME280;29810;55.848;37.368;2023-06-10T01:23:57;99634.03;;;11.98;59.46
44148;BME280;29810;55.848;37.368;2023-06-10T01:27:00;99661.19;;;12.41;58.98
44148;BME280;29810;55.848;37.368;2023-06-10T01:30:04;99661.59;;;12.54;58.48
44148;BME280;29810;55.848;37.368;2023-06-10T01:33:08;99661.31;;;12.84;57.54
44148;BME280;29810;55.848;37.368;2023-06-10T01:36:10;99667.59;;;13.02;56.22
44148;BME280;29810;55.848;37.368;2023-06-10T01:39:14;99665.81;;;12.80;56.23
44148;BME280;29810;55.848;37.368;2023-06-10T01:42:16;99669.59;;;13.39;55.11
44148;BME280;29810;55.848;37.368;2023-06-10T01:45:18;99666.59;;;14.11;53.53
44148;BME280;29810;55.848;37.368;2023-06-10T01:48:19;99666.56;;;14.31;52.43
44148;BME280;29810;55.848;37.368;2023-06-10T01:51:20;99670.38;;;14.43;51.81
44148;BME280;29810;55.848;37.368;2023-06-10T01:54:22;99668.78;;;14.98;50.73
44148;BME280;29810;55.848;37.368;2023-06-10T01:57:23;99662.91;;;15.82;48.87
44148;BME280;29810;55.848;37.368;2023-06-10T02:00:24;99666.91;;;16.22;47.03
44148;BME280;29810;55.848;37.368;2023-06-10T02:03:25;99668.06;;;16.01;47.59
44148;BME280;29810;55.848;37.368;2023-06-10T02:06:27;99671.25;;;17.05;44.76
44148;BME280;29810;55.848;37.368;2023-06-10T02:09:28;99673.53;;;17.11;44.20
44148;BME280;29810;55.848;37.368;2023-06-10T02:12:32;99669.34;;;17.84;42.99
44148;BME280;29810;55.848;37.368;2023-06-10T02:15:34;99669.50;;;18.40;42.80
44148;BME280;29810;55.848;37.368;2023-06-10T02:18:36;99676.03;;;18.76;40.66
44148;BME280;29810;55.848;37.368;2023-06-10T02:21:38;99679.13;;;18.83;39.63
44148;BME280;29810;55.848;37.368;2023-06-10T02:24:44;99676.69;;;19.62;39.90
44148;BME280;29810;55.848;37.368;2023-06-10T02:27:45;99679.22;;;19.23;38.50
44148;BME280;29810;55.848;37.368;2023-06-10T02:30:46;99675.69;;;19.10;38.63
44148;BME280;29810;55.848;37.368;2023-06-10T02:33:49;99678.81;;;19.69;37.38
44148;BME280;29810;55.848;37.368;2023-06-10T02:36:51;99676.34;;;19.26;38.19
44148;BME280;29810;55.848;37.368;2023-06-10T02:39:54;99674.19;;;19.99;37.51
44148;BME280;29810;55.848;37.368;2023-06-10T02:42:56;99676.94;;;20.23;37.26
44148;BME280;29810;55.848;37.368;2023-06-10T02:45:57;99683.50;;;21.17;34.69
44148;BME280;29810;55.848;37.368;2023-06-10T02:48:58;99675.88;;;21.37;35.76
44148;BME280;29810;55.848;37.368;2023-06-10T02:52:00;99680.03;;;21.88;35.08
44148;BME280;29810;55.848;37.368;2023-06-10T02:55:01;99669.78;;;22.74;32.84
44148;BME280;29810;55.848;37.368;2023-06-10T02:58:04;99682.13;;;22.30;32.39
44148;BME280;29810;55.848;37.368;2023-06-10T03:01:07;99681.44;;;21.45;34.23
44148;BME280;29810;55.848;37.368;2023-06-10T03:04:11;99694.09;;;21.17;33.85
44148;BME280;29810;55.848;37.368;2023-06-10T03:07:15;99689.56;;;20.82;34.55
44148;BME280;29810;55.848;37.368;2023-06-10T03:10:17;99702.75;;;19.94;34.90
44148;BME280;29810;55.848;37.368;2023-06-10T03:13:18;99690.59;;;20.30;35.58
44148;BME280;29810;55.848;37.368;2023-06-10T03:16:20;99704.13;;;20.38;35.08
44148;BME280;29810;55.848;37.368;2023-06-10T03:19:22;99690.75;;;21.87;33.35
44148;BME280;29810;55.848;37.368;2023-06-10T03:22:24;99687.44;;;22.64;30.96
44148;BME280;29810;55.848;37.368;2023-06-10T03:25:27;99682.81;;;23.32;30.00
44148;BME280;29810;55.848;37.368;2023-06-10T03:28:29;99699.34;;;21.55;32.85
44148;BME280;29810;55.848;37.368;2023-06-10T03:31:32;99686.63;;;23.07;30.62
44148;BME280;29810;55.848;37.368;2023-06-10T03:34:33;99682.53;;;24.41;29.58
44148;BME280;29810;55.848;37.368;2023-06-10T03:37:36;99681.91;;;24.28;28.98
44148;BME280;29810;55.848;37.368;2023-06-10T03:40:38;99688.19;;;24.58;27.92
44148;BME280;29810;55.848;37.368;2023-06-10T03:43:40;99695.28;;;24.69;27.30
44148;BME280;29810;55.848;37.368;2023-06-10T03:46:42;99684.66;;;24.98;28.30
44148;BME280;29810;55.848;37.368;2023-06-10T03:49:43;99687.50;;;25.65;26.32
44148;BME280;29810;55.848;37.368;2023-06-10T03:52:45;99685.44;;;25.39;26.96
44148;BME280;29810;55.848;37.368;2023-06-10T03:55:48;99696.63;;;25.33;26.14
44148;BME280;29810;55.848;37.368;2023-06-10T03:58:50;99693.38;;;25.00;27.49
44148;BME280;29810;55.848;37.368;2023-06-10T04:01:51;99700.16;;;25.53;25.72
44148;BME280;29810;55.848;37.368;2023-06-10T04:04:53;99690.72;;;25.00;26.80
44148;BME280;29810;55.848;37.368;2023-06-10T04:07:54;99713.97;;;23.95;27.62
44148;BME280;29810;55.848;37.368;2023-06-10T04:10:56;99707.75;;;24.06;27.62
44148;BME280;29810;55.848;37.368;2023-06-10T04:13:58;99698.56;;;25.90;25.62
44148;BME280;29810;55.848;37.368;2023-06-10T04:17:00;99693.53;;;26.34;25.65
44148;BME280;29810;55.848;37.368;2023-06-10T04:20:01;99697.03;;;25.87;25.02
44148;BME280;29810;55.848;37.368;2023-06-10T04:23:05;99686.22;;;26.74;24.12
44148;BME280;29810;55.848;37.368;2023-06-10T04:26:06;99699.53;;;26.08;24.65
44148;BME280;29810;55.848;37.368;2023-06-10T04:29:08;99699.38;;;26.48;24.52
44148;BME280;29810;55.848;37.368;2023-06-10T04:32:09;99698.59;;;25.80;24.63
44148;BME280;29810;55.848;37.368;2023-06-10T04:35:12;99694.38;;;27.00;23.46
44148;BME280;29810;55.848;37.368;2023-06-10T04:38:14;99703.34;;;28.07;21.82
44148;BME280;29810;55.848;37.368;2023-06-10T04:41:16;99694.72;;;28.22;21.68
44148;BME280;29810;55.848;37.368;2023-06-10T04:44:18;99696.50;;;27.95;21.86
44148;BME280;29810;55.848;37.368;2023-06-10T04:47:20;99693.38;;;26.73;22.99
44148;BME280;29810;55.848;37.368;2023-06-10T04:50:21;99701.00;;;26.96;22.83
44148;BME280;29810;55.848;37.368;2023-06-10T04:53:23;99730.66;;;24.50;25.04
44148;BME280;29810;55.848;37.368;2023-06-10T04:56:24;99715.97;;;26.89;23.19
44148;BME280;29810;55.848;37.368;2023-06-10T04:59:26;99703.63;;;28.04;21.82
44148;BME280;29810;55.848;37.368;2023-06-10T05:02:27;99701.56;;;29.02;20.34
44148;BME280;29810;55.848;37.368;2023-06-10T05:05:28;99713.28;;;29.01;20.76
44148;BME280;29810;55.848;37.368;2023-06-10T05:08:29;99724.69;;;27.09;21.48
44148;BME280;29810;55.848;37.368;2023-06-10T05:11:31;99722.41;;;27.14;21.84
44148;BME280;29810;55.848;37.368;2023-06-10T05:14:32;99734.31;;;25.59;23.60
44148;BME280;29810;55.848;37.368;2023-06-10T05:17:33;99730.22;;;26.42;23.29
44148;BME280;29810;55.848;37.368;2023-06-10T05:20:35;99732.22;;;26.77;22.70
44148;BME280;29810;55.848;37.368;2023-06-10T05:23:37;99724.91;;;28.32;21.74
44148;BME280;29810;55.848;37.368;2023-06-10T05:26:38;99724.06;;;27.61;21.90
44148;BME280;29810;55.848;37.368;2023-06-10T05:29:40;99715.44;;;28.81;21.10
44148;BME280;29810;55.848;37.368;2023-06-10T05:32:41;99732.47;;;27.30;21.94
44148;BME280;29810;55.848;37.368;2023-06-10T05:35:42;99729.72;;;28.20;21.66
44148;BME280;29810;55.848;37.368;2023-06-10T05:38:43;99736.28;;;27.82;21.10
44148;BME280;29810;55.848;37.368;2023-06-10T05:41:45;99729.13;;;28.69;20.82
44148;BME280;29810;55.848;37.368;2023-06-10T05:44:46;99729.63;;;29.24;20.74
44148;BME280;29810;55.848;37.368;2023-06-10T05:47:48;99736.59;;;27.79;21.75
44148;BME280;29810;55.848;37.368;2023-06-10T05:50:49;99741.91;;;29.43;20.45
44148;BME280;29810;55.848;37.368;2023-06-10T05:53:50;99731.78;;;25.38;23.75
44148;BME280;29810;55.848;37.368;2023-06-10T05:56:51;99775.22;;;21.44;30.73
44148;BME280;29810;55.848;37.368;2023-06-10T05:59:53;99772.09;;;19.99;32.12
44148;BME280;29810;55.848;37.368;2023-06-10T06:02:54;99784.69;;;18.70;34.18
44148;BME280;29810;55.848;37.368;2023-06-10T06:05:55;99786.44;;;17.01;37.95
44148;BME280;29810;55.848;37.368;2023-06-10T06:08:56;99773.13;;;19.83;34.48
44148;BME280;29810;55.848;37.368;2023-06-10T06:11:58;99760.41;;;23.70;27.99
44148;BME280;29810;55.848;37.368;2023-06-10T06:14:59;99757.63;;;25.67;25.32
44148;BME280;29810;55.848;37.368;2023-06-10T06:18:00;99739.22;;;26.51;23.97
44148;BME280;29810;55.848;37.368;2023-06-10T06:21:02;99755.78;;;26.92;23.25
44148;BME280;29810;55.848;37.368;2023-06-10T06:24:03;99775.75;;;22.09;28.98
44148;BME280;29810;55.848;37.368;2023-06-10T06:27:04;99775.06;;;22.30;29.33
44148;BME280;29810;55.848;37.368;2023-06-10T06:30:07;99783.34;;;21.67;30.00
44148;BME280;29810;55.848;37.368;2023-06-10T06:33:08;99781.88;;;22.45;28.93
44148;BME280;29810;55.848;37.368;2023-06-10T06:36:09;99774.97;;;23.22;27.63
44148;BME280;29810;55.848;37.368;2023-06-10T06:39:11;99764.37;;;22.77;28.13
44148;BME280;29810;55.848;37.368;2023-06-10T06:42:12;99783.22;;;20.68;31.10
44148;BME280;29810;55.848;37.368;2023-06-10T06:45:15;99791.00;;;18.53;35.20
44148;BME280;29810;55.848;37.368;2023-06-10T06:48:16;99814.03;;;17.28;37.39
44148;BME280;29810;55.848;37.368;2023-06-10T06:51:17;99822.81;;;16.26;39.37
44148;BME280;29810;55.848;37.368;2023-06-10T06:54:19;99838.19;;;15.43;40.70
44148;BME280;29810;55.848;37.368;2023-06-10T06:57:20;99833.37;;;14.96;42.33
44148;BME280;29810;55.848;37.368;2023-06-10T07:00:21;99828.94;;;15.36;41.00
44148;BME280;29810;55.848;37.368;2023-06-10T07:03:22;99826.81;;;15.25;42.18
44148;BME280;29810;55.848;37.368;2023-06-10T07:06:24;99829.53;;;14.84;42.75
44148;BME280;29810;55.848;37.368;2023-06-10T07:09:26;99826.75;;;14.87;42.00
44148;BME280;29810;55.848;37.368;2023-06-10T07:12:29;99838.22;;;14.65;42.78
44148;BME280;29810;55.848;37.368;2023-06-10T07:15:31;99828.47;;;14.69;41.92
44148;BME280;29810;55.848;37.368;2023-06-10T07:18:34;99825.34;;;14.99;42.41
44148;BME280;29810;55.848;37.368;2023-06-10T07:21:35;99834.03;;;15.01;41.46
44148;BME280;29810;55.848;37.368;2023-06-10T07:24:37;99827.44;;;15.67;41.20
44148;BME280;29810;55.848;37.368;2023-06-10T07:27:38;99848.41;;;15.87;40.24
44148;BME280;29810;55.848;37.368;2023-06-10T07:30:40;99834.56;;;15.65;41.59
44148;BME280;29810;55.848;37.368;2023-06-10T07:33:41;99847.66;;;15.09;42.22
44148;BME280;29810;55.848;37.368;2023-06-10T07:36:44;99848.66;;;14.67;43.18
44148;BME280;29810;55.848;37.368;2023-06-10T07:39:45;99839.13;;;14.44;43.68
44148;BME280;29810;55.848;37.368;2023-06-10T07:42:47;99860.03;;;14.45;43.74
44148;BME280;29810;55.848;37.368;2023-06-10T07:45:48;99857.88;;;14.34;43.41
44148;BME280;29810;55.848;37.368;2023-06-10T07:48:50;99862.25;;;14.13;43.55
44148;BME280;29810;55.848;37.368;2023-06-10T07:51:53;99859.25;;;14.43;43.15
44148;BME280;29810;55.848;37.368;2023-06-10T07:54:55;99868.22;;;14.58;42.61
44148;BME280;29810;55.848;37.368;2023-06-10T07:57:56;99864.84;;;14.77;41.98
44148;BME280;29810;55.848;37.368;2023-06-10T08:00:57;99880.81;;;14.72;41.45
44148;BME280;29810;55.848;37.368;2023-06-10T08:03:59;99855.59;;;15.07;40.42
44148;BME280;29810;55.848;37.368;2023-06-10T08:07:00;99873.47;;;14.99;39.76
44148;BME280;29810;55.848;37.368;2023-06-10T08:10:02;99876.16;;;14.36;39.38
44148;BME280;29810;55.848;37.368;2023-06-10T08:13:04;99875.72;;;14.47;39.05
44148;BME280;29810;55.848;37.368;2023-06-10T08:16:06;99883.34;;;14.73;39.36
44148;BME280;29810;55.848;37.368;2023-06-10T08:19:08;99862.50;;;15.10;38.01
44148;BME280;29810;55.848;37.368;2023-06-10T08:22:10;99880.16;;;15.64;37.45
44148;BME280;29810;55.848;37.368;2023-06-10T08:25:11;99885.72;;;15.96;35.74
44148;BME280;29810;55.848;37.368;2023-06-10T08:28:12;99884.91;;;15.94;35.95
44148;BME280;29810;55.848;37.368;2023-06-10T08:31:13;99881.25;;;15.60;35.67
44148;BME280;29810;55.848;37.368;2023-06-10T08:34:15;99881.38;;;15.95;35.08
44148;BME280;29810;55.848;37.368;2023-06-10T08:37:16;99871.66;;;16.14;34.73
44148;BME280;29810;55.848;37.368;2023-06-10T08:40:17;99879.63;;;16.13;35.82
44148;BME280;29810;55.848;37.368;2023-06-10T08:43:22;99885.56;;;15.61;36.57
44148;BME280;29810;55.848;37.368;2023-06-10T08:46:29;99886.41;;;15.80;36.67
44148;BME280;29810;55.848;37.368;2023-06-10T08:49:32;99888.53;;;15.91;36.69
44148;BME280;29810;55.848;37.368;2023-06-10T08:52:35;99906.31;;;15.86;36.63
44148;BME280;29810;55.848;37.368;2023-06-10T08:55:42;99906.66;;;15.78;37.11
44148;BME280;29810;55.848;37.368;2023-06-10T08:58:43;99896.28;;;15.56;36.58
44148;BME280;29810;55.848;37.368;2023-06-10T09:01:46;99909.28;;;15.40;36.59
44148;BME280;29810;55.848;37.368;2023-06-10T09:04:48;99893.53;;;15.40;36.82
44148;BME280;29810;55.848;37.368;2023-06-10T09:07:51;99896.22;;;15.38;37.37
44148;BME280;29810;55.848;37.368;2023-06-10T09:10:53;99906.03;;;15.35;38.02
44148;BME280;29810;55.848;37.368;2023-06-10T09:13:54;99904.97;;;15.20;37.01
44148;BME280;29810;55.848;37.368;2023-06-10T09:16:55;99902.78;;;15.49;37.78
44148;BME280;29810;55.848;37.368;2023-06-10T09:19:59;99901.28;;;16.18;36.12
44148;BME280;29810;55.848;37.368;2023-06-10T09:23:02;99925.66;;;16.21;34.55
44148;BME280;29810;55.848;37.368;2023-06-10T09:26:07;99899.03;;;16.45;35.46
44148;BME280;29810;55.848;37.368;2023-06-10T09:29:09;99896.47;;;16.44;35.04
44148;BME280;29810;55.848;37.368;2023-06-10T09:32:12;99921.91;;;16.08;35.52
44148;BME280;29810;55.848;37.368;2023-06-10T09:35:14;99902.19;;;15.80;35.26
44148;BME280;29810;55.848;37.368;2023-06-10T09:38:28;99899.19;;;15.69;35.71
44148;BME280;29810;55.848;37.368;2023-06-10T09:41:34;99923.56;;;15.92;34.85
44148;BME280;29810;55.848;37.368;2023-06-10T09:44:36;99923.34;;;15.39;35.39
44148;BME280;29810;55.848;37.368;2023-06-10T09:47:37;99906.22;;;15.30;35.30
44148;BME280;29810;55.848;37.368;2023-06-10T09:50:42;99914.03;;;15.13;34.84
44148;BME280;29810;55.848;37.368;2023-06-10T09:53:47;99913.06;;;15.53;35.00
44148;BME280;29810;55.848;37.368;2023-06-10T09:56:49;99954.06;;;15.96;34.48
44148;BME280;29810;55.848;37.368;2023-06-10T09:59:52;99912.34;;;15.69;35.37
44148;BME280;29810;55.848;37.368;2023-06-10T10:02:53;99924.63;;;16.06;33.75
44148;BME280;29810;55.848;37.368;2023-06-10T10:05:59;99907.22;;;16.21;33.44
44148;BME280;29810;55.848;37.368;2023-06-10T10:09:01;99947.16;;;15.74;32.64
44148;BME280;29810;55.848;37.368;2023-06-10T10:12:11;99917.78;;;15.26;33.07
44148;BME280;29810;55.848;37.368;2023-06-10T10:15:13;99907.16;;;15.48;34.36
44148;BME280;29810;55.848;37.368;2023-06-10T10:18:15;99907.75;;;15.93;33.29
44148;BME280;29810;55.848;37.368;2023-06-10T10:21:24;99905.94;;;16.30;33.76
44148;BME280;29810;55.848;37.368;2023-06-10T10:24:31;99914.81;;;16.28;33.83
44148;BME280;29810;55.848;37.368;2023-06-10T10:27:56;99907.25;;;16.39;33.19
44148;BME280;29810;55.848;37.368;2023-06-10T10:30:57;99925.22;;;15.75;33.30
44148;BME280;29810;55.848;37.368;2023-06-10T10:34:01;99925.63;;;15.66;32.49
44148;BME280;29810;55.848;37.368;2023-06-10T10:37:03;99905.47;;;15.66;32.00
44148;BME280;29810;55.848;37.368;2023-06-10T10:40:05;99904.31;;;16.28;31.65
44148;BME280;29810;55.848;37.368;2023-06-10T10:43:07;99895.91;;;17.07;30.72
44148;BME280;29810;55.848;37.368;2023-06-10T10:46:12;99878.97;;;17.77;30.43
44148;BME280;29810;55.848;37.368;2023-06-10T10:49:15;99886.09;;;18.07;29.32
44148;BME280;29810;55.848;37.368;2023-06-10T10:52:16;99897.75;;;17.86;30.21
44148;BME280;29810;55.848;37.368;2023-06-10T10:55:18;99898.66;;;17.21;30.99
44148;BME280;29810;55.848;37.368;2023-06-10T10:58:24;99905.22;;;16.79;30.93
44148;BME280;29810;55.848;37.368;2023-06-10T11:01:25;99912.53;;;16.39;30.68
44148;BME280;29810;55.848;37.368;2023-06-10T11:04:44;99919.84;;;16.67;29.98
44148;BME280;29810;55.848;37.368;2023-06-10T11:07:52;99911.19;;;16.65;29.84
44148;BME280;29810;55.848;37.368;2023-06-10T11:10:56;99893.72;;;17.15;29.65
44148;BME280;29810;55.848;37.368;2023-06-10T11:17:02;99901.72;;;17.30;32.12
44148;BME280;29810;55.848;37.368;2023-06-10T11:20:41;99915.50;;;16.84;32.17
44148;BME280;29810;55.848;37.368;2023-06-10T11:23:40;99910.34;;;16.65;31.49
44148;BME280;29810;55.848;37.368;2023-06-10T11:26:45;99908.66;;;16.64;32.24
44148;BME280;29810;55.848;37.368;2023-06-10T11:33:04;99922.81;;;16.96;32.44
44148;BME280;29810;55.848;37.368;2023-06-10T11:36:08;99923.97;;;16.55;31.50
44148;BME280;29810;55.848;37.368;2023-06-10T11:39:10;99928.84;;;16.63;30.50
44148;BME280;29810;55.848;37.368;2023-06-10T11:42:11;99905.81;;;16.84;30.40
44148;BME280;29810;55.848;37.368;2023-06-10T11:45:16;99894.34;;;17.36;29.80
44148;BME280;29810;55.848;37.368;2023-06-10T11:48:18;99921.78;;;16.99;30.18
44148;BME280;29810;55.848;37.368;2023-06-10T11:51:19;99924.22;;;16.51;30.94
44148;BME280;29810;55.848;37.368;2023-06-10T11:54:21;99914.50;;;16.86;30.82
44148;BME280;29810;55.848;37.368;2023-06-10T11:57:23;99919.16;;;16.81;31.36
44148;BME280;29810;55.848;37.368;2023-06-10T12:00:24;99946.56;;;16.60;32.88
44148;BME280;29810;55.848;37.368;2023-06-10T12:03:26;99930.53;;;16.29;33.31
44148;BME280;29810;55.848;37.368;2023-06-10T12:06:27;99920.72;;;16.15;34.15
44148;BME280;29810;55.848;37.368;2023-06-10T12:09:29;99933.03;;;15.96;34.60
44148;BME280;29810;55.848;37.368;2023-06-10T12:12:30;99921.81;;;16.29;34.20
44148;BME280;29810;55.848;37.368;2023-06-10T12:15:32;99926.28;;;16.27;34.91
44148;BME280;29810;55.848;37.368;2023-06-10T12:18:33;99929.59;;;16.13;34.85
44148;BME280;29810;55.848;37.368;2023-06-10T12:21:36;99922.50;;;15.77;35.03
44148;BME280;29810;55.848;37.368;2023-06-10T12:24:44;99950.41;;;15.79;34.97
44148;BME280;29810;55.848;37.368;2023-06-10T12:27:55;99925.37;;;16.09;34.58
44148;BME280;29810;55.848;37.368;2023-06-10T12:31:06;99935.78;;;16.29;34.99
44148;BME280;29810;55.848;37.368;2023-06-10T12:34:08;99929.59;;;16.13;34.36
44148;BME280;29810;55.848;37.368;2023-06-10T12:37:10;99939.25;;;16.12;34.33
44148;BME280;29810;55.848;37.368;2023-06-10T12:40:15;99924.63;;;16.06;34.46
44148;BME280;29810;55.848;37.368;2023-06-10T12:43:22;99923.88;;;15.85;34.89
44148;BME280;29810;55.848;37.368;2023-06-10T12:46:24;99920.84;;;16.12;34.88
44148;BME280;29810;55.848;37.368;2023-06-10T12:49:25;99932.94;;;16.34;32.67
44148;BME280;29810;55.848;37.368;2023-06-10T12:52:27;99935.41;;;16.19;32.21
44148;BME280;29810;55.848;37.368;2023-06-10T12:55:28;99907.53;;;15.79;32.62
44148;BME280;29810;55.848;37.368;2023-06-10T12:58:30;99934.16;;;16.09;32.71
44148;BME280;29810;55.848;37.368;2023-06-10T13:01:31;99917.97;;;15.80;34.23
44148;BME280;29810;55.848;37.368;2023-06-10T13:04:32;99907.31;;;15.83;34.43
44148;BME280;29810;55.848;37.368;2023-06-10T13:07:33;99928.62;;;15.96;34.04
44148;BME280;29810;55.848;37.368;2023-06-10T13:10:35;99935.03;;;15.91;34.49
44148;BME280;29810;55.848;37.368;2023-06-10T13:13:37;99928.91;;;15.52;34.88
44148;BME280;29810;55.848;37.368;2023-06-10T13:16:38;99923.81;;;15.87;34.33
44148;BME280;29810;55.848;37.368;2023-06-10T13:19:39;99925.84;;;15.99;34.01
44148;BME280;29810;55.848;37.368;2023-06-10T13:22:41;99919.16;;;16.29;33.59
44148;BME280;29810;55.848;37.368;2023-06-10T13:25:42;99918.16;;;16.84;33.38
44148;BME280;29810;55.848;37.368;2023-06-10T13:28:45;99916.66;;;17.13;33.87
44148;BME280;29810;55.848;37.368;2023-06-10T13:31:46;99943.50;;;16.69;34.61
44148;BME280;29810;55.848;37.368;2023-06-10T13:34:48;99952.56;;;15.90;35.32
44148;BME280;29810;55.848;37.368;2023-06-10T13:37:52;99935.84;;;15.72;36.09
44148;BME280;29810;55.848;37.368;2023-06-10T13:40:54;99969.72;;;15.40;35.23
44148;BME280;29810;55.848;37.368;2023-06-10T13:43:55;99954.72;;;15.23;35.05
44148;BME280;29810;55.848;37.368;2023-06-10T13:46:56;99940.75;;;15.42;35.57
44148;BME280;29810;55.848;37.368;2023-06-10T14:12:03;99954.44;;;16.25;34.63
44148;BME280;29810;55.848;37.368;2023-06-10T14:15:05;99954.44;;;16.25;34.63
44148;BME280;29810;55.848;37.368;2023-06-10T14:18:07;99942.13;;;15.50;35.45
44148;BME280;29810;55.848;37.368;2023-06-10T14:21:08;99984.22;;;15.49;36.32
44148;BME280;29810;55.848;37.368;2023-06-10T14:24:10;99950.91;;;15.49;35.47
44148;BME280;29810;55.848;37.368;2023-06-10T14:27:12;99968.44;;;15.09;35.20
44148;BME280;29810;55.848;37.368;2023-06-10T14:30:14;99956.50;;;15.22;35.06
44148;BME280;29810;55.848;37.368;2023-06-10T14:33:16;99977.38;;;15.05;35.79
44148;BME280;29810;55.848;37.368;2023-06-10T14:36:17;99959.97;;;15.02;35.64
44148;BME280;29810;55.848;37.368;2023-06-10T14:39:20;99951.34;;;14.80;36.60
44148;BME280;29810;55.848;37.368;2023-06-10T14:42:21;99957.56;;;14.98;36.75
44148;BME280;29810;55.848;37.368;2023-06-10T14:45:23;99980.16;;;15.02;36.74
44148;BME280;29810;55.848;37.368;2023-06-10T14:48:26;99975.03;;;14.78;36.90
44148;BME280;29810;55.848;37.368;2023-06-10T14:51:28;99936.84;;;14.49;36.91
44148;BME280;29810;55.848;37.368;2023-06-10T14:54:29;99955.69;;;14.58;36.19
44148;BME280;29810;55.848;37.368;2023-06-10T14:57:31;99963.75;;;14.54;35.73
44148;BME280;29810;55.848;37.368;2023-06-10T15:00:32;99956.37;;;14.64;35.50
44148;BME280;29810;55.848;37.368;2023-06-10T15:03:34;99970.63;;;14.56;35.57
44148;BME280;29810;55.848;37.368;2023-06-10T15:06:36;99960.53;;;14.47;35.07
44148;BME280;29810;55.848;37.368;2023-06-10T15:09:37;99972.63;;;14.29;34.39
44148;BME280;29810;55.848;37.368;2023-06-10T15:12:39;99974.06;;;14.58;34.31
44148;BME280;29810;55.848;37.368;2023-06-10T15:15:40;99950.59;;;14.33;34.65
44148;BME280;29810;55.848;37.368;2023-06-10T15:18:42;99966.25;;;14.35;35.22
44148;BME280;29810;55.848;37.368;2023-06-10T15:21:45;99970.91;;;14.28;35.69
44148;BME280;29810;55.848;37.368;2023-06-10T15:24:46;99976.25;;;14.47;35.45
44148;BME280;29810;55.848;37.368;2023-06-10T15:27:48;99974.06;;;14.58;35.47
44148;BME280;29810;55.848;37.368;2023-06-10T15:30:49;99960.81;;;14.62;35.68
44148;BME280;29810;55.848;37.368;2023-06-10T15:33:51;99999.13;;;14.44;35.58
44148;BME280;29810;55.848;37.368;2023-06-10T15:36:52;99984.72;;;14.54;35.70
44148;BME280;29810;55.848;37.368;2023-06-10T15:39:54;99974.44;;;14.49;35.91
44148;BME280;29810;55.848;37.368;2023-06-10T15:42:55;99972.28;;;14.59;35.43
44148;BME280;29810;55.848;37.368;2023-06-10T15:45:58;99981.50;;;14.47;36.32
44148;BME280;29810;55.848;37.368;2023-06-10T15:48:59;99984.66;;;14.55;36.12
44148;BME280;29810;55.848;37.368;2023-06-10T15:52:01;99987.03;;;14.62;36.18
44148;BME280;29810;55.848;37.368;2023-06-10T15:55:03;99989.75;;;14.60;35.50
44148;BME280;29810;55.848;37.368;2023-06-10T15:58:04;99996.50;;;14.44;35.22
44148;BME280;29810;55.848;37.368;2023-06-10T16:01:06;99995.38;;;14.29;35.28
44148;BME280;29810;55.848;37.368;2023-06-10T16:04:10;99993.50;;;14.32;35.89
44148;BME280;29810;55.848;37.368;2023-06-10T16:07:12;100013.97;;;14.22;35.71
44148;BME280;29810;55.848;37.368;2023-06-10T16:10:13;100021.22;;;14.16;35.67
44148;BME280;29810;55.848;37.368;2023-06-10T16:13:15;100019.94;;;14.04;35.82
44148;BME280;29810;55.848;37.368;2023-06-10T16:16:16;100016.28;;;14.08;36.09
44148;BME280;29810;55.848;37.368;2023-06-10T16:19:18;100024.22;;;14.06;35.50
44148;BME280;29810;55.848;37.368;2023-06-10T16:22:19;100006.03;;;14.02;36.06
44148;BME280;29810;55.848;37.368;2023-06-10T16:25:21;100020.75;;;13.82;36.32